M I D A S
Marine Information and Data Acquisition System
Tripno 1071 of the Zeeleeuw from 2006-04-18 08:40:58 to 2006-04-18 10:53:31
Back to CruiseResearch ActivitiesStationsMapUnderway DataData graphs

EquipmentUnitsComments
TimeDGPSUTC
LatitudeDGPSDM.mWGS84
LongitudeDGPSDM.mWGS84
SpeedMeteo Stationm/sRelative wind speed
DirectionMeteo StationdegRelative wind direction
TemperatureMeteo Stationdeg CelciusAir temperature
PressureMeteo StationPaAtmospheric pressure
HumidityMeteo Station%Relative humidity
Missing or incorrect values are displayed as -999
Metereological data collected by the RV Zeeleeuw from 2006-04-18 06:36:17 to 2006-04-18 11:06:56
Time Latitude Longitude Speed Direction Temperature Pressure Humidity
2006-04-18 06:37 51°13.601 2°56.1 -999 141 8.6 101330 82
2006-04-18 06:38 51°13.605 2°56.074 -999 152 8.6 101340 83
2006-04-18 06:39 51°13.627 2°55.977 -999 155 8.6 101340 82
2006-04-18 06:40 51°13.671 2°55.861 -999 164 8.6 101340 82
2006-04-18 06:41 51°13.708 2°55.764 -999 158 8.7 101340 82
2006-04-18 06:42 51°13.723 2°55.724 -999 252 8.7 101340 82
2006-04-18 06:43 51°13.726 2°55.727 -999 206 8.9 101340 82
2006-04-18 06:44 51°13.73 2°55.715 -999 265 9 101340 81
2006-04-18 06:45 51°13.781 2°55.67 -999 325 9.1 101340 80
2006-04-18 06:46 51°13.86 2°55.608 -999 351 9.1 101340 80
2006-04-18 06:47 51°13.933 2°55.543 -999 308 9.2 101340 79
2006-04-18 06:48 51°13.983 2°55.482 -999 300 9.2 101340 79
2006-04-18 06:49 51°14.001 2°55.458 -999 352 9.2 101330 79
2006-04-18 06:50 51°14.005 2°55.455 -999 309 9.3 101340 79
2006-04-18 06:51 51°14.004 2°55.452 -999 299 9.4 101330 79
2006-04-18 06:52 51°14.004 2°55.451 -999 301 9.5 101340 78
2006-04-18 06:53 51°14.004 2°55.451 -999 300 9.6 101340 78
2006-04-18 06:54 51°14.004 2°55.451 -999 301 9.6 101340 78
2006-04-18 06:55 51°14.004 2°55.45 -999 238 9.7 101340 77
2006-04-18 06:56 51°14.004 2°55.45 -999 182 9.7 101340 77
2006-04-18 06:57 51°14.004 2°55.451 -999 268 9.7 101340 77
2006-04-18 06:58 51°14.004 2°55.451 -999 280 9.8 101340 77
2006-04-18 06:59 51°14.004 2°55.451 -999 271 9.8 101340 77
2006-04-18 07:00 51°14.004 2°55.45 -999 186 9.8 101340 77
2006-04-18 07:01 51°14.004 2°55.45 -999 286 9.8 101340 77
2006-04-18 07:02 51°14.005 2°55.451 -999 37 9.9 101340 77
2006-04-18 07:03 51°14.004 2°55.45 -999 272 9.9 101340 76
2006-04-18 07:04 51°14.007 2°55.45 -999 265 9.9 101340 76
2006-04-18 07:05 51°14.007 2°55.45 -999 261 9.9 101340 76
2006-04-18 07:06 51°14.007 2°55.45 -999 281 10 101340 76
2006-04-18 07:07 51°14.007 2°55.45 -999 287 9.9 101340 76
2006-04-18 07:08 51°14.007 2°55.45 -999 262 9.9 101340 76
2006-04-18 07:09 51°14.007 2°55.45 -999 271 10 101350 76
2006-04-18 07:10 51°14.007 2°55.45 -999 269 9.9 101340 76
2006-04-18 07:11 51°14.007 2°55.45 -999 248 10 101350 76
2006-04-18 07:12 51°14.007 2°55.449 -999 258 10 101350 76
2006-04-18 07:13 51°14.006 2°55.448 -999 275 10 101350 76
2006-04-18 07:14 51°14.007 2°55.449 -999 206 10.1 101350 76
2006-04-18 07:15 51°14.007 2°55.449 -999 135 10.1 101340 76
2006-04-18 07:16 51°14.006 2°55.449 -999 213 10.2 101340 76
2006-04-18 07:17 51°14.007 2°55.45 -999 194 10.2 101350 75
2006-04-18 07:18 51°14.006 2°55.449 -999 277 10.3 101350 75
2006-04-18 07:19 51°14.007 2°55.449 -999 230 10.3 101340 74
2006-04-18 07:20 51°14.007 2°55.449 -999 263 10.2 101350 75
2006-04-18 07:21 51°14.006 2°55.449 -999 283 10.2 101350 75
2006-04-18 07:22 51°14.007 2°55.449 -999 267 10.2 101350 75
2006-04-18 07:23 51°14.007 2°55.449 -999 266 10.2 101350 75
2006-04-18 07:24 51°14.007 2°55.448 -999 356 10.2 101350 75
2006-04-18 07:25 51°14.007 2°55.449 -999 290 10.1 101350 75
2006-04-18 07:26 51°14.007 2°55.449 -999 277 10.1 101350 75
2006-04-18 07:27 51°14.006 2°55.449 -999 300 10.1 101350 75
2006-04-18 07:28 51°14.006 2°55.449 -999 293 10.1 101350 75
2006-04-18 07:29 51°14.006 2°55.45 -999 270 10 101350 75
2006-04-18 07:30 51°14.006 2°55.451 -999 277 9.9 101350 76
2006-04-18 07:31 51°14.006 2°55.451 -999 240 9.9 101350 76
2006-04-18 07:32 51°14.006 2°55.451 -999 257 9.9 101350 76
2006-04-18 07:33 51°14.006 2°55.45 -999 282 9.9 101350 77
2006-04-18 07:34 51°14.006 2°55.449 -999 266 9.9 101350 77
2006-04-18 07:35 51°14.007 2°55.45 -999 274 9.8 101350 77
2006-04-18 07:36 51°14.007 2°55.449 -999 280 9.8 101350 77
2006-04-18 07:37 51°14.006 2°55.448 -999 282 9.8 101350 77
2006-04-18 07:38 51°14.006 2°55.448 -999 279 9.9 101360 77
2006-04-18 07:39 51°14.006 2°55.448 -999 303 9.9 101350 77
2006-04-18 07:40 51°14.007 2°55.449 -999 293 9.9 101350 77
2006-04-18 07:41 51°14.007 2°55.45 -999 235 9.9 101350 77
2006-04-18 07:42 51°14.006 2°55.449 -999 257 9.9 101350 77
2006-04-18 07:43 51°14.006 2°55.449 -999 247 9.9 101350 77
2006-04-18 07:44 51°14.005 2°55.448 -999 242 10 101350 77
2006-04-18 07:45 51°14.005 2°55.449 -999 287 10 101350 77
2006-04-18 07:46 51°14.006 2°55.45 -999 296 10 101350 77
2006-04-18 07:47 51°14.006 2°55.45 -999 272 10 101350 77
2006-04-18 07:48 51°14.005 2°55.45 -999 251 10.1 101350 77
2006-04-18 07:49 51°14.006 2°55.45 -999 236 10.2 101350 77
2006-04-18 07:50 51°14.005 2°55.451 -999 238 10.2 101350 76
2006-04-18 07:51 51°14.004 2°55.448 -999 231 10.2 101350 76
2006-04-18 07:52 51°14.007 2°55.451 -999 227 10.2 101350 76
2006-04-18 07:53 51°14.006 2°55.45 -999 232 10.3 101350 76
2006-04-18 07:54 51°14.006 2°55.449 -999 297 10.2 101360 75
2006-04-18 07:55 51°14.006 2°55.449 -999 292 10.2 101360 76
2006-04-18 07:56 51°14.007 2°55.451 -999 256 10.2 101350 76
2006-04-18 07:57 51°14.006 2°55.449 -999 284 10.3 101360 76
2006-04-18 07:58 51°14.006 2°55.449 -999 282 10.3 101350 76
2006-04-18 07:59 51°14.006 2°55.45 -999 283 10.2 101360 76
2006-04-18 08:00 51°14.007 2°55.451 -999 257 10.1 101350 76
2006-04-18 08:01 51°14.006 2°55.45 -999 238 10 101360 76
2006-04-18 08:02 51°14.007 2°55.452 -999 292 10 101360 77
2006-04-18 08:03 51°13.994 2°55.466 -999 16 10 101360 77
2006-04-18 08:04 51°14.042 2°55.436 -999 270 10 101360 77
2006-04-18 08:05 51°14.153 2°55.389 -999 337 10 101350 77
2006-04-18 08:06 51°14.256 2°55.27 -999 323 9.9 101350 78
2006-04-18 08:07 51°14.339 2°55.112 -999 334 9.7 101350 79
2006-04-18 08:08 51°14.409 2°54.909 -999 339 9.5 101330 80
2006-04-18 08:09 51°14.417 2°54.594 -999 4 9.3 101330 82
2006-04-18 08:10 51°14.327 2°54.274 -999 17 9.2 101330 82
2006-04-18 08:11 51°14.222 2°53.959 -999 7 9.1 101340 84
2006-04-18 08:12 51°14.121 2°53.635 -999 11 9 101340 85
2006-04-18 08:13 51°14.014 2°53.311 -999 14 9 101330 86
2006-04-18 08:14 51°13.907 2°52.989 -999 8 8.9 101350 86
2006-04-18 08:15 51°13.806 2°52.667 -999 11 8.9 101330 86
2006-04-18 08:16 51°13.704 2°52.333 -999 15 8.9 101340 86
2006-04-18 08:17 51°13.6 2°52.008 -999 11 8.8 101330 87
2006-04-18 08:18 51°13.483 2°51.694 -999 11 8.8 101350 87
2006-04-18 08:19 51°13.376 2°51.37 -999 12 8.8 101360 87
2006-04-18 08:20 51°13.266 2°51.048 -999 9 8.8 101350 88
2006-04-18 08:21 51°13.153 2°50.728 -999 10 8.8 101350 87
2006-04-18 08:22 51°13.048 2°50.401 -999 7 8.8 101360 87
2006-04-18 08:23 51°12.941 2°50.076 -999 7 8.8 101360 88
2006-04-18 08:24 51°12.833 2°49.751 -999 12 8.8 101350 88
2006-04-18 08:25 51°12.72 2°49.429 -999 15 8.8 101350 88
2006-04-18 08:26 51°12.606 2°49.106 -999 11 8.8 101350 89
2006-04-18 08:27 51°12.491 2°48.786 -999 6 8.8 101350 88
2006-04-18 08:28 51°12.377 2°48.463 -999 11 8.8 101360 88
2006-04-18 08:29 51°12.262 2°48.14 -999 12 8.8 101360 88
2006-04-18 08:30 51°12.149 2°47.817 -999 13 8.8 101370 88
2006-04-18 08:31 51°12.038 2°47.493 -999 6 8.8 101370 89
2006-04-18 08:32 51°11.931 2°47.162 -999 15 8.8 101360 89
2006-04-18 08:33 51°11.824 2°46.834 -999 12 8.8 101360 89
2006-04-18 08:34 51°11.716 2°46.505 -999 10 8.8 101370 88
2006-04-18 08:35 51°11.61 2°46.174 -999 14 8.8 101350 87
2006-04-18 08:36 51°11.505 2°45.844 -999 13 8.9 101350 87
2006-04-18 08:37 51°11.4 2°45.514 -999 12 8.9 101380 87
2006-04-18 08:38 51°11.297 2°45.182 -999 11 8.9 101360 87
2006-04-18 08:39 51°11.199 2°44.846 -999 10 8.9 101370 88
2006-04-18 08:40 51°11.101 2°44.512 -999 11 8.9 101360 87
2006-04-18 08:41 51°10.999 2°44.181 -999 5 8.9 101370 87
2006-04-18 08:42 51°10.905 2°43.843 -999 11 8.9 101370 87
2006-04-18 08:43 51°10.808 2°43.509 -999 11 8.9 101360 87
2006-04-18 08:44 51°10.715 2°43.174 -999 14 8.9 101360 86
2006-04-18 08:45 51°10.622 2°42.842 -999 7 8.9 101370 87
2006-04-18 08:46 51°10.541 2°42.5 -999 7 8.9 101350 85
2006-04-18 08:47 51°10.448 2°42.166 -999 8 8.9 101370 85
2006-04-18 08:48 51°10.361 2°41.829 -999 8 8.9 101380 86
2006-04-18 08:49 51°10.275 2°41.493 -999 7 8.9 101380 86
2006-04-18 08:50 51°10.183 2°41.16 -999 11 8.9 101370 85
2006-04-18 08:51 51°10.099 2°40.824 -999 7 8.9 101360 86
2006-04-18 08:52 51°10.014 2°40.487 -999 7 8.9 101360 86
2006-04-18 08:53 51°9.929 2°40.15 -999 6 9 101390 86
2006-04-18 08:54 51°9.838 2°39.817 -999 13 9 101360 86
2006-04-18 08:55 51°9.757 2°39.478 -999 10 9 101380 85
2006-04-18 08:56 51°9.673 2°39.139 -999 5 9 101370 84
2006-04-18 08:57 51°9.585 2°38.801 -999 8 9 101370 84
2006-04-18 08:58 51°9.499 2°38.461 -999 7 9 101370 84
2006-04-18 08:59 51°9.409 2°38.126 -999 9 9 101380 83
2006-04-18 09:00 51°9.32 2°37.79 -999 7 9 101380 82
2006-04-18 09:01 51°9.244 2°37.464 -999 16 9.1 101370 83
2006-04-18 09:02 51°9.18 2°37.293 -999 15 9.1 101380 83
2006-04-18 09:03 51°9.152 2°37.201 -999 27 9.1 101400 82
2006-04-18 09:04 51°9.154 2°37.193 -999 60 9.1 101400 82
2006-04-18 09:05 51°9.157 2°37.185 -999 80 9 101390 82
2006-04-18 09:06 51°9.16 2°37.175 -999 93 9 101400 83
2006-04-18 09:07 51°9.16 2°37.164 -999 108 9 101400 84
2006-04-18 09:08 51°9.159 2°37.154 -999 116 9 101400 84
2006-04-18 09:09 51°9.157 2°37.145 -999 117 9 101410 85
2006-04-18 09:10 51°9.154 2°37.137 -999 114 9 101400 85
2006-04-18 09:11 51°9.15 2°37.129 -999 117 9 101400 85
2006-04-18 09:12 51°9.145 2°37.12 -999 111 9 101400 85
2006-04-18 09:13 51°9.14 2°37.112 -999 112 9 101400 86
2006-04-18 09:14 51°9.134 2°37.103 -999 104 9 101400 86
2006-04-18 09:15 51°9.092 2°37.088 -999 51 9 101400 85
2006-04-18 09:16 51°9.053 2°36.954 -999 338 9.1 101400 85
2006-04-18 09:17 51°9.131 2°36.86 -999 275 9.2 101390 85
2006-04-18 09:18 51°9.212 2°36.916 -999 225 9.2 101420 84
2006-04-18 09:19 51°9.246 2°36.998 -999 195 9.2 101420 83
2006-04-18 09:20 51°9.27 2°37.088 -999 189 9.4 101420 84
2006-04-18 09:21 51°9.283 2°37.182 -999 177 9.7 101420 80
2006-04-18 09:22 51°9.297 2°37.268 -999 181 9.6 101420 79
2006-04-18 09:23 51°9.305 2°37.345 -999 164 9.4 101420 79
2006-04-18 09:24 51°9.306 2°37.426 -999 156 9.4 101420 80
2006-04-18 09:25 51°9.302 2°37.511 -999 155 9.3 101420 80
2006-04-18 09:26 51°9.298 2°37.601 -999 160 9.4 101420 81
2006-04-18 09:27 51°9.295 2°37.69 -999 155 9.3 101420 81
2006-04-18 09:28 51°9.292 2°37.778 -999 158 9.4 101420 82
2006-04-18 09:29 51°9.293 2°37.863 -999 170 9.3 101420 80
2006-04-18 09:30 51°9.3 2°37.946 -999 176 9.3 101420 80
2006-04-18 09:31 51°9.312 2°38.026 -999 178 9.4 101420 81
2006-04-18 09:32 51°9.335 2°38.097 -999 219 9.6 101420 81
2006-04-18 09:33 51°9.371 2°38.154 -999 221 9.6 101420 80
2006-04-18 09:34 51°9.401 2°38.218 -999 184 9.5 101420 80
2006-04-18 09:35 51°9.42 2°38.292 -999 191 10 101420 80
2006-04-18 09:36 51°9.44 2°38.369 -999 202 10.4 101420 78
2006-04-18 09:37 51°9.46 2°38.444 -999 192 10.5 101420 75
2006-04-18 09:38 51°9.482 2°38.52 -999 188 10.6 101420 75
2006-04-18 09:39 51°9.503 2°38.594 -999 204 10.7 101420 74
2006-04-18 09:40 51°9.525 2°38.668 -999 202 10.6 101420 74
2006-04-18 09:41 51°9.546 2°38.743 -999 204 10.5 101420 75
2006-04-18 09:42 51°9.567 2°38.817 -999 202 10.6 101420 76
2006-04-18 09:43 51°9.591 2°38.887 -999 199 10.4 101420 75
2006-04-18 09:44 51°9.616 2°38.959 -999 193 10.1 101420 76
2006-04-18 09:45 51°9.627 2°39.063 -999 168 10.1 101420 77
2006-04-18 09:46 51°9.617 2°39.181 -999 144 10 101420 78
2006-04-18 09:47 51°9.587 2°39.291 -999 125 9.9 101430 79
2006-04-18 09:48 51°9.525 2°39.375 -999 105 9.8 101430 79
2006-04-18 09:49 51°9.469 2°39.453 -999 146 9.8 101430 80
2006-04-18 09:50 51°9.473 2°39.519 -999 244 9.8 101430 80
2006-04-18 09:51 51°9.509 2°39.541 -999 259 9.8 101430 80
2006-04-18 09:52 51°9.54 2°39.543 -999 266 9.8 101430 81
2006-04-18 09:53 51°9.566 2°39.536 -999 265 9.8 101430 81
2006-04-18 09:54 51°9.595 2°39.532 -999 265 9.8 101430 81
2006-04-18 09:55 51°9.654 2°39.565 -999 258 9.8 101430 80
2006-04-18 09:56 51°9.723 2°39.636 -999 262 9.7 101430 80
2006-04-18 09:57 51°9.789 2°39.727 -999 231 9.7 101430 79
2006-04-18 09:58 51°9.856 2°39.87 -999 265 9.7 101430 80
2006-04-18 09:59 51°9.949 2°40.128 -999 286 9.7 101430 79
2006-04-18 10:00 51°10.043 2°40.4 -999 272 9.8 101430 79
2006-04-18 10:01 51°10.134 2°40.675 -999 277 9.9 101440 78
2006-04-18 10:02 51°10.224 2°40.949 -999 267 10 101440 77
2006-04-18 10:03 51°10.315 2°41.222 -999 283 10.1 101440 77
2006-04-18 10:04 51°10.407 2°41.494 -999 270 10.2 101440 77
2006-04-18 10:05 51°10.497 2°41.768 -999 275 10.2 101440 76
2006-04-18 10:06 51°10.592 2°42.037 -999 270 10.3 101440 76
2006-04-18 10:07 51°10.679 2°42.308 -999 286 10.3 101430 76
2006-04-18 10:08 51°10.767 2°42.579 -999 274 10.4 101440 75
2006-04-18 10:09 51°10.859 2°42.846 -999 284 10.5 101440 75
2006-04-18 10:10 51°10.947 2°43.115 -999 284 10.4 101440 75
2006-04-18 10:11 51°11.038 2°43.378 -999 288 10.5 101430 75
2006-04-18 10:12 51°11.128 2°43.643 -999 282 10.5 101440 76
2006-04-18 10:13 51°11.215 2°43.909 -999 268 10.6 101440 75
2006-04-18 10:14 51°11.305 2°44.174 -999 291 10.6 101440 74
2006-04-18 10:15 51°11.39 2°44.443 -999 316 10.6 101440 74
2006-04-18 10:16 51°11.474 2°44.716 -999 301 10.7 101440 74
2006-04-18 10:17 51°11.549 2°44.996 -999 292 10.7 101450 74
2006-04-18 10:18 51°11.62 2°45.28 -999 280 10.8 101450 74
2006-04-18 10:19 51°11.684 2°45.571 -999 279 10.9 101440 74
2006-04-18 10:20 51°11.748 2°45.858 -999 303 10.9 101450 73
2006-04-18 10:21 51°11.812 2°46.147 -999 304 11 101450 73
2006-04-18 10:22 51°11.877 2°46.438 -999 305 11 101450 73
2006-04-18 10:23 51°11.941 2°46.725 -999 294 11 101450 73
2006-04-18 10:24 51°12.006 2°47.012 -999 288 11 101450 72
2006-04-18 10:25 51°12.087 2°47.286 -999 298 11 101440 72
2006-04-18 10:26 51°12.172 2°47.558 -999 284 11 101450 72
2006-04-18 10:27 51°12.257 2°47.831 -999 272 11 101450 72
2006-04-18 10:28 51°12.348 2°48.099 -999 280 10.9 101450 72
2006-04-18 10:29 51°12.438 2°48.368 -999 294 10.8 101450 72
2006-04-18 10:30 51°12.531 2°48.635 -999 287 10.8 101450 72
2006-04-18 10:31 51°12.625 2°48.908 -999 281 10.8 101440 73
2006-04-18 10:32 51°12.716 2°49.171 -999 287 10.7 101440 73
2006-04-18 10:33 51°12.806 2°49.444 -999 276 10.7 101450 72
2006-04-18 10:34 51°12.897 2°49.714 -999 281 10.6 101450 72
2006-04-18 10:35 51°12.985 2°49.99 -999 289 10.6 101450 73
2006-04-18 10:36 51°13.069 2°50.269 -999 280 10.6 101440 73
2006-04-18 10:37 51°13.15 2°50.551 -999 296 10.7 101450 73
2006-04-18 10:38 51°13.231 2°50.83 -999 296 10.7 101450 73
2006-04-18 10:39 51°13.309 2°51.112 -999 275 10.7 101450 73
2006-04-18 10:40 51°13.389 2°51.395 -999 285 10.7 101450 73
2006-04-18 10:41 51°13.468 2°51.676 -999 299 10.7 101450 72
2006-04-18 10:42 51°13.562 2°51.946 -999 289 10.7 101450 72
2006-04-18 10:43 51°13.652 2°52.224 -999 291 10.7 101460 72
2006-04-18 10:44 51°13.743 2°52.499 -999 286 10.7 101450 72
2006-04-18 10:45 51°13.835 2°52.78 -999 302 10.8 101450 72
2006-04-18 10:46 51°13.926 2°53.053 -999 309 10.8 101450 72
2006-04-18 10:47 51°14.027 2°53.322 -999 276 10.8 101460 71
2006-04-18 10:48 51°14.124 2°53.591 -999 280 10.8 101460 71
2006-04-18 10:49 51°14.202 2°53.825 -999 291 10.8 101450 71
2006-04-18 10:50 51°14.3 2°54.075 -999 287 10.8 101460 72
2006-04-18 10:51 51°14.385 2°54.337 -999 264 10.8 101460 71
2006-04-18 10:52 51°14.401 2°54.647 -999 44 10.9 101460 72
2006-04-18 10:53 51°14.387 2°54.955 -999 78 11 101460 71
2006-04-18 10:54 51°14.316 2°55.179 -999 113 10.7 101460 71
2006-04-18 10:55 51°14.231 2°55.312 -999 109 10.5 101450 73
2006-04-18 10:56 51°14.146 2°55.391 -999 86 10.4 101450 74
2006-04-18 10:57 51°14.062 2°55.453 -999 32 10.4 101450 73
2006-04-18 10:58 51°13.99 2°55.511 -999 33 10.5 101450 71
2006-04-18 10:59 51°13.899 2°55.58 -999 118 10.6 101450 70
2006-04-18 11:00 51°13.812 2°55.65 -999 69 10.7 101450 69
2006-04-18 11:01 51°13.748 2°55.731 -999 88 10.8 101450 67
2006-04-18 11:02 51°13.693 2°55.83 -999 163 10.9 101450 67
2006-04-18 11:03 51°13.649 2°55.927 -999 164 11 101450 66
2006-04-18 11:04 51°13.619 2°56.009 -999 208 10.9 101450 65
2006-04-18 11:05 51°13.606 2°56.074 -999 222 10.9 101450 65
2006-04-18 11:06 51°13.602 2°56.095 -999 182 10.8 101450 65